Time;durP1;ratioP1;P1;durP2;ratioP2;P2;SDS_P1;SDS_P2;PMS_P1;PMS_P2;Temp;Humidity;BMP_temperature;BMP_pressure;BME280_temperature;BME280_humidity;BME280_pressure;Samples;Min_cycle;Max_cycle;Signal;HPM_P1;HPM_P2
2022/09/26 00:00:32;;;;;;;1.23;0.60;;;;;;;;;;4507158;28;29833;-68
2022/09/26 00:02:43;;;;;;;1.13;0.70;;;;;;;;;;4510207;28;20038;-68
2022/09/26 00:04:54;;;;;;;1.00;0.80;;;;;;;;;;4509333;28;20656;-68
2022/09/26 00:07:04;;;;;;;0.95;0.68;;;;;;;;;;4494083;28;20325;-67
2022/09/26 00:09:15;;;;;;;1.00;0.70;;;;;;;;;;4508548;28;20077;-68
2022/09/26 00:11:29;;;;;;;1.58;0.65;;;;;;;;;;4493260;28;20038;-67
2022/09/26 00:13:40;;;;;;;0.80;0.80;;;;;;;;;;4508789;28;20324;-67
2022/09/26 00:15:52;;;;;;;1.55;0.80;;;;;;;;;;4494073;28;20090;-67
2022/09/26 00:18:02;;;;;;;1.33;0.80;;;;;;;;;;4510739;28;20045;-68
2022/09/26 00:20:13;;;;;;;1.42;0.80;;;;;;;;;;4502159;28;20044;-67
2022/09/26 00:22:23;;;;;;;0.98;0.68;;;;;;;;;;4507783;28;20034;-67
2022/09/26 00:24:33;;;;;;;0.95;0.80;;;;;;;;;;4510477;28;20088;-67
2022/09/26 00:26:44;;;;;;;1.33;0.70;;;;;;;;;;4509498;28;20025;-67
2022/09/26 00:28:55;;;;;;;0.82;0.80;;;;;;;;;;4469365;28;20053;-68
2022/09/26 00:31:15;;;;;;;1.13;0.60;;;;;;;;;;4511641;28;20040;-68
2022/09/26 00:33:25;;;;;;;0.90;0.70;;;;;;;;;;4502068;28;20320;-68
2022/09/26 00:35:36;;;;;;;0.90;0.70;;;;;;;;;;4510873;28;20092;-67
2022/09/26 00:37:47;;;;;;;0.75;0.65;;;;;;;;;;4503828;28;20068;-67
2022/09/26 00:39:57;;;;;;;1.08;0.90;;;;;;;;;;4508967;28;20626;-68
2022/09/26 00:42:12;;;;;;;0.73;0.60;;;;;;;;;;4494558;28;20022;-67
2022/09/26 00:44:35;;;;;;;0.77;0.63;;;;;;;;;;4511150;28;20112;-67
2022/09/26 00:46:47;;;;;;;0.95;0.70;;;;;;;;;;4508671;28;20033;-67
2022/09/26 00:49:26;;;;;;;0.77;0.70;;;;;;;;;;4508913;28;20072;-67
2022/09/26 00:51:39;;;;;;;1.23;0.68;;;;;;;;;;4511343;28;20146;-68
2022/09/26 00:53:51;;;;;;;1.30;0.80;;;;;;;;;;4493910;28;20681;-67
2022/09/26 00:56:07;;;;;;;1.13;0.75;;;;;;;;;;4490395;28;20035;-67
2022/09/26 00:58:27;;;;;;;0.80;0.52;;;;;;;;;;4503266;28;20075;-67
2022/09/26 01:00:39;;;;;;;0.82;0.77;;;;;;;;;;4509412;28;20041;-68
2022/09/26 01:02:51;;;;;;;0.68;0.43;;;;;;;;;;4503130;28;20033;-67
2022/09/26 01:05:02;;;;;;;0.85;0.60;;;;;;;;;;4507998;28;20033;-68
2022/09/26 01:07:16;;;;;;;0.70;0.60;;;;;;;;;;4511106;28;20038;-67
2022/09/26 01:09:27;;;;;;;1.40;0.77;;;;;;;;;;4490990;28;20033;-67
2022/09/26 01:11:39;;;;;;;0.93;0.70;;;;;;;;;;4506617;28;20089;-68
2022/09/26 01:13:51;;;;;;;1.10;0.70;;;;;;;;;;4493879;28;21514;-67
2022/09/26 01:16:02;;;;;;;0.73;0.70;;;;;;;;;;4506120;28;20204;-67
2022/09/26 01:18:12;;;;;;;0.70;0.70;;;;;;;;;;4511036;28;20894;-67
2022/09/26 01:20:39;;;;;;;1.75;0.68;;;;;;;;;;4509414;28;20037;-69
2022/09/26 01:23:12;;;;;;;1.35;0.80;;;;;;;;;;4495832;28;20673;-69
2022/09/26 01:25:50;;;;;;;0.73;0.57;;;;;;;;;;4510196;28;20514;-68
2022/09/26 01:28:38;;;;;;;0.88;0.68;;;;;;;;;;4501498;28;20637;-69
2022/09/26 01:31:26;;;;;;;0.95;0.68;;;;;;;;;;4507259;28;20295;-69
2022/09/26 01:33:41;;;;;;;0.80;0.80;;;;;;;;;;4508946;28;20807;-68
2022/09/26 01:36:22;;;;;;;0.70;0.50;;;;;;;;;;4492581;28;20185;-69
2022/09/26 01:39:26;;;;;;;1.30;0.70;;;;;;;;;;4507636;28;20038;-69
2022/09/26 01:41:59;;;;;;;0.70;0.70;;;;;;;;;;4456041;28;20294;-69
2022/09/26 01:44:34;;;;;;;0.75;0.60;;;;;;;;;;4466257;28;20785;-68
2022/09/26 01:46:52;;;;;;;1.02;0.73;;;;;;;;;;4495006;28;20092;-69
2022/09/26 01:49:12;;;;;;;0.80;0.60;;;;;;;;;;4508431;28;20521;-68
2022/09/26 01:51:29;;;;;;;0.68;0.60;;;;;;;;;;4508449;28;20038;-69
2022/09/26 01:53:44;;;;;;;;;;;;;;;;;;4498526;28;20550;-69
2022/09/26 01:56:01;;;;;;;0.70;0.70;;;;;;;;;;4506951;28;19972;-69
2022/09/26 01:58:19;;;;;;;1.45;0.80;;;;;;;;;;4496216;28;20597;-68
2022/09/26 02:00:33;;;;;;;1.10;0.65;;;;;;;;;;4491283;28;20126;-68
2022/09/26 02:02:46;;;;;;;0.85;0.80;;;;;;;;;;4477395;28;20038;-69
2022/09/26 02:05:02;;;;;;;2.40;1.45;;;;;;;;;;4491353;28;20101;-69
2022/09/26 02:07:20;;;;;;;1.55;1.20;;;;;;;;;;4500416;28;20061;-69
2022/09/26 02:09:38;;;;;;;0.90;0.85;;;;;;;;;;4493080;28;20048;-68
2022/09/26 02:11:54;;;;;;;1.55;0.90;;;;;;;;;;4489862;28;20041;-68
2022/09/26 02:14:10;;;;;;;2.13;1.25;;;;;;;;;;4494920;28;20362;-68
2022/09/26 02:16:27;;;;;;;3.25;2.22;;;;;;;;;;4500794;28;20038;-69
2022/09/26 02:18:47;;;;;;;3.40;2.80;;;;;;;;;;4507000;28;20034;-68
2022/09/26 02:21:18;;;;;;;2.17;1.63;;;;;;;;;;4509064;28;20300;-68
2022/09/26 02:23:29;;;;;;;2.50;1.80;;;;;;;;;;4492022;28;20042;-68
2022/09/26 02:25:40;;;;;;;1.83;1.23;;;;;;;;;;4511060;28;20527;-69
2022/09/26 02:27:50;;;;;;;1.30;1.20;;;;;;;;;;4503615;28;20044;-68
2022/09/26 02:30:01;;;;;;;1.25;0.90;;;;;;;;;;4502931;28;20045;-69
2022/09/26 02:32:15;;;;;;;1.13;0.80;;;;;;;;;;4512025;28;20479;-68
2022/09/26 02:34:26;;;;;;;1.45;0.98;;;;;;;;;;4510619;28;20041;-69
2022/09/26 02:36:37;;;;;;;1.35;1.00;;;;;;;;;;4503776;28;20618;-68
2022/09/26 02:38:48;;;;;;;2.10;0.80;;;;;;;;;;4496090;28;20731;-68
2022/09/26 02:41:27;;;;;;;0.98;0.80;;;;;;;;;;4487593;28;20112;-68
2022/09/26 02:44:03;;;;;;;1.40;0.98;;;;;;;;;;4486272;28;20066;-67
2022/09/26 02:46:25;;;;;;;1.20;0.95;;;;;;;;;;4499916;28;20050;-68
2022/09/26 02:48:52;;;;;;;1.33;0.80;;;;;;;;;;4495255;28;20594;-68
2022/09/26 02:51:40;;;;;;;1.27;0.80;;;;;;;;;;4494154;28;20041;-67
2022/09/26 02:54:17;;;;;;;2.05;1.00;;;;;;;;;;4503144;28;20044;-67
2022/09/26 02:56:45;;;;;;;1.52;0.80;;;;;;;;;;4492048;28;20150;-67
2022/09/26 02:59:02;;;;;;;1.00;0.90;;;;;;;;;;4509848;28;21348;-67
2022/09/26 03:01:27;;;;;;;1.00;0.85;;;;;;;;;;4512459;28;20025;-68
2022/09/26 03:03:43;;;;;;;1.08;0.88;;;;;;;;;;4512557;28;20160;-67
2022/09/26 03:05:56;;;;;;;1.63;0.95;;;;;;;;;;4507591;28;20104;-67
2022/09/26 03:08:17;;;;;;;2.05;1.08;;;;;;;;;;4509880;28;20152;-67
2022/09/26 03:10:29;;;;;;;1.30;0.90;;;;;;;;;;4503096;28;20085;-67
2022/09/26 03:12:40;;;;;;;2.15;1.13;;;;;;;;;;4502366;28;20136;-67
2022/09/26 03:14:51;;;;;;;1.83;1.00;;;;;;;;;;4486678;28;20141;-67
2022/09/26 03:17:03;;;;;;;1.30;0.88;;;;;;;;;;4496931;28;20815;-68
2022/09/26 03:19:28;;;;;;;1.58;1.02;;;;;;;;;;4494527;28;20041;-67
2022/09/26 03:21:39;;;;;;;1.30;1.05;;;;;;;;;;4509650;28;20033;-67
2022/09/26 03:23:49;;;;;;;1.33;1.00;;;;;;;;;;4503543;28;20511;-67
2022/09/26 03:26:08;;;;;;;1.75;0.90;;;;;;;;;;4499819;28;20512;-67
2022/09/26 03:28:20;;;;;;;1.10;1.00;;;;;;;;;;4492121;28;20177;-67
2022/09/26 03:30:31;;;;;;;1.60;1.00;;;;;;;;;;4496771;28;20038;-67
2022/09/26 03:33:02;;;;;;;1.67;0.93;;;;;;;;;;4505367;28;20475;-67
2022/09/26 03:35:13;;;;;;;0.93;0.88;;;;;;;;;;4503120;28;20034;-67
2022/09/26 03:37:23;;;;;;;1.00;0.90;;;;;;;;;;4508961;28;20042;-67
2022/09/26 03:39:34;;;;;;;1.75;1.00;;;;;;;;;;4496573;28;20034;-67
2022/09/26 03:41:50;;;;;;;1.85;1.00;;;;;;;;;;4502602;28;20030;-67
2022/09/26 03:44:18;;;;;;;1.33;1.00;;;;;;;;;;4509237;28;20041;-67
2022/09/26 03:46:47;;;;;;;1.27;0.75;;;;;;;;;;4511851;28;20054;-68
2022/09/26 03:48:57;;;;;;;1.20;0.85;;;;;;;;;;4510822;28;20034;-67
2022/09/26 03:51:10;;;;;;;1.17;0.90;;;;;;;;;;4510320;28;21057;-67
2022/09/26 03:53:21;;;;;;;1.90;0.82;;;;;;;;;;4495062;28;20646;-67
2022/09/26 03:55:32;;;;;;;1.20;0.80;;;;;;;;;;4499607;28;20038;-68
2022/09/26 03:57:42;;;;;;;1.08;0.82;;;;;;;;;;4512104;28;20213;-67
2022/09/26 04:00:03;;;;;;;1.25;0.75;;;;;;;;;;4502527;28;20030;-67
2022/09/26 04:02:26;;;;;;;0.95;0.75;;;;;;;;;;4506154;28;20676;-67
2022/09/26 04:04:52;;;;;;;1.90;0.98;;;;;;;;;;4501803;28;20038;-67
2022/09/26 04:07:02;;;;;;;1.38;0.90;;;;;;;;;;4510700;28;24733;-67
2022/09/26 04:09:12;;;;;;;1.48;0.80;;;;;;;;;;4508818;28;20033;-67
2022/09/26 04:11:24;;;;;;;2.42;0.98;;;;;;;;;;4501914;28;20677;-67
2022/09/26 04:13:35;;;;;;;1.52;1.10;;;;;;;;;;4493487;28;20554;-67
2022/09/26 04:15:53;;;;;;;2.22;1.05;;;;;;;;;;4508081;28;20038;-67
2022/09/26 04:18:04;;;;;;;1.35;1.02;;;;;;;;;;4503616;28;20034;-67
2022/09/26 04:20:14;;;;;;;1.17;1.08;;;;;;;;;;4510708;28;20702;-67
2022/09/26 04:22:26;;;;;;;1.83;1.20;;;;;;;;;;4497012;28;20036;-67
2022/09/26 04:24:37;;;;;;;1.88;1.17;;;;;;;;;;4511910;28;20403;-67
2022/09/26 04:26:47;;;;;;;1.60;1.30;;;;;;;;;;4492177;28;20034;-67
2022/09/26 04:28:58;;;;;;;2.33;1.45;;;;;;;;;;4495914;28;20180;-67
2022/09/26 04:31:29;;;;;;;2.45;1.63;;;;;;;;;;4510630;28;20112;-67
2022/09/26 04:33:47;;;;;;;2.17;1.30;;;;;;;;;;4501608;28;20145;-67
2022/09/26 04:36:01;;;;;;;2.17;1.42;;;;;;;;;;4503330;28;20029;-67
2022/09/26 04:38:12;;;;;;;2.08;1.40;;;;;;;;;;4509646;28;20038;-67
2022/09/26 04:40:22;;;;;;;1.55;1.30;;;;;;;;;;4499064;28;20034;-67
2022/09/26 04:42:53;;;;;;;2.60;1.50;;;;;;;;;;4502525;28;20026;-67
2022/09/26 04:45:04;;;;;;;1.60;1.48;;;;;;;;;;4494070;28;20041;-67
2022/09/26 04:47:16;;;;;;;1.70;1.45;;;;;;;;;;4491424;28;20342;-67
2022/09/26 04:49:47;;;;;;;2.35;1.60;;;;;;;;;;4506934;28;20042;-67
2022/09/26 04:51:57;;;;;;;2.75;1.70;;;;;;;;;;4509276;28;31045;-68
2022/09/26 04:54:07;;;;;;;1.88;1.60;;;;;;;;;;4491069;28;20544;-67
2022/09/26 04:56:24;;;;;;;1.90;1.52;;;;;;;;;;4502734;28;20673;-67
2022/09/26 04:58:36;;;;;;;2.58;1.70;;;;;;;;;;4493713;28;20049;-67
2022/09/26 05:00:48;;;;;;;1.80;1.40;;;;;;;;;;4495676;28;20093;-67
2022/09/26 05:03:08;;;;;;;2.25;1.85;;;;;;;;;;4501422;28;20760;-68
2022/09/26 05:05:18;;;;;;;2.85;1.92;;;;;;;;;;4508108;28;20135;-68
2022/09/26 05:07:30;;;;;;;2.35;1.80;;;;;;;;;;4502082;28;20095;-67
2022/09/26 05:09:41;;;;;;;1.77;1.52;;;;;;;;;;4494558;28;20046;-67
2022/09/26 05:11:57;;;;;;;1.98;1.60;;;;;;;;;;4509935;28;20475;-68
2022/09/26 05:14:09;;;;;;;2.78;1.95;;;;;;;;;;4502518;28;20041;-68
2022/09/26 05:16:19;;;;;;;2.45;1.80;;;;;;;;;;4495021;28;20185;-68
2022/09/26 05:18:35;;;;;;;2.17;1.80;;;;;;;;;;4511282;28;20596;-68
2022/09/26 05:20:47;;;;;;;3.15;1.80;;;;;;;;;;4506761;28;20049;-68
2022/09/26 05:22:57;;;;;;;3.00;1.95;;;;;;;;;;4492244;28;20034;-67
2022/09/26 05:27:38;;;;;;;2.53;1.90;;;;;;;;;;4506847;28;20045;-67
2022/09/26 05:29:55;;;;;;;2.65;2.15;;;;;;;;;;4497467;28;20030;-67
2022/09/26 05:32:05;;;;;;;2.55;1.90;;;;;;;;;;4507459;28;20100;-67
2022/09/26 05:34:21;;;;;;;2.60;2.10;;;;;;;;;;4491210;28;20722;-68
2022/09/26 05:36:32;;;;;;;2.20;2.00;;;;;;;;;;4495389;28;20041;-67
2022/09/26 05:38:44;;;;;;;2.97;1.90;;;;;;;;;;4500201;28;20687;-67
2022/09/26 05:40:55;;;;;;;3.15;2.28;;;;;;;;;;4491094;28;20270;-67
2022/09/26 05:43:07;;;;;;;2.55;2.10;;;;;;;;;;4508573;28;20026;-67
2022/09/26 05:45:18;;;;;;;2.95;2.30;;;;;;;;;;4489750;28;20488;-68
2022/09/26 05:47:34;;;;;;;2.83;2.28;;;;;;;;;;4511248;28;21072;-68
2022/09/26 05:49:45;;;;;;;3.30;2.60;;;;;;;;;;4483791;28;20666;-68
2022/09/26 05:51:58;;;;;;;2.85;2.50;;;;;;;;;;4500724;28;20109;-67
2022/09/26 05:54:09;;;;;;;2.85;2.35;;;;;;;;;;4507239;28;20526;-66
2022/09/26 05:56:20;;;;;;;3.03;2.40;;;;;;;;;;4508795;28;20034;-67
2022/09/26 05:58:46;;;;;;;3.97;2.95;;;;;;;;;;4503948;28;20242;-67
2022/09/26 06:01:18;;;;;;;3.00;2.53;;;;;;;;;;4507213;28;20591;-67
2022/09/26 06:03:33;;;;;;;2.90;2.40;;;;;;;;;;4492064;28;20037;-67
2022/09/26 06:05:53;;;;;;;3.40;2.30;;;;;;;;;;4495262;28;20050;-66
2022/09/26 06:08:11;;;;;;;2.88;2.50;;;;;;;;;;4499683;28;20286;-68
2022/09/26 06:10:25;;;;;;;3.47;2.40;;;;;;;;;;4512451;28;20038;-67
2022/09/26 06:12:44;;;;;;;3.00;2.53;;;;;;;;;;4508728;28;20073;-68
2022/09/26 06:14:55;;;;;;;3.92;2.60;;;;;;;;;;4509280;28;20460;-67
2022/09/26 06:17:05;;;;;;;3.00;2.30;;;;;;;;;;4486026;28;20034;-67
2022/09/26 06:19:16;;;;;;;3.08;2.75;;;;;;;;;;4501281;28;20033;-68
2022/09/26 06:21:26;;;;;;;2.97;2.15;;;;;;;;;;4512028;28;20930;-68
2022/09/26 06:23:42;;;;;;;3.85;2.58;;;;;;;;;;4486846;28;20066;-68
2022/09/26 06:25:53;;;;;;;2.85;2.28;;;;;;;;;;4509849;28;20033;-68
2022/09/26 06:28:03;;;;;;;2.47;2.10;;;;;;;;;;4499535;28;20082;-66
2022/09/26 06:30:15;;;;;;;3.38;2.20;;;;;;;;;;4481829;28;20443;-66
2022/09/26 06:32:25;;;;;;;4.47;3.30;;;;;;;;;;4504001;28;20021;-66
2022/09/26 06:34:56;;;;;;;3.97;3.35;;;;;;;;;;4508554;28;20908;-66
2022/09/26 06:37:25;;;;;;;3.17;2.50;;;;;;;;;;4505032;28;20129;-67
2022/09/26 06:39:35;;;;;;;3.78;2.20;;;;;;;;;;4503966;28;20029;-65
2022/09/26 06:41:46;;;;;;;3.40;2.40;;;;;;;;;;4500436;28;20567;-67
2022/09/26 06:44:14;;;;;;;;;;;;;;;;;;4503539;28;20056;-68
2022/09/26 06:46:32;;;;;;;;;;;;;;;;;;4498115;28;20028;-67
2022/09/26 06:49:05;;;;;;;2.70;2.20;;;;;;;;;;4512048;28;19967;-67
2022/09/26 06:51:30;;;;;;;2.13;1.88;;;;;;;;;;4496056;28;20045;-67
2022/09/26 06:53:44;;;;;;;2.92;2.20;;;;;;;;;;4489097;28;20460;-67
2022/09/26 06:55:58;;;;;;;2.63;2.10;;;;;;;;;;4492848;28;20030;-67
2022/09/26 06:58:08;;;;;;;2.25;1.80;;;;;;;;;;4510725;28;20041;-68
2022/09/26 07:00:34;;;;;;;3.35;2.08;;;;;;;;;;4502742;28;20069;-67
2022/09/26 07:02:52;;;;;;;2.60;2.00;;;;;;;;;;4497704;28;20134;-67
2022/09/26 07:05:10;;;;;;;2.17;1.90;;;;;;;;;;4509989;28;20729;-68
2022/09/26 07:07:29;;;;;;;2.97;1.88;;;;;;;;;;4503793;28;20034;-67
2022/09/26 07:09:39;;;;;;;2.85;1.80;;;;;;;;;;4496633;28;20048;-68
2022/09/26 07:12:23;;;;;;;2.30;1.70;;;;;;;;;;4494718;28;20053;-68
2022/09/26 07:14:36;;;;;;;3.10;1.80;;;;;;;;;;4512498;28;20711;-68
2022/09/26 07:16:56;;;;;;;2.50;1.80;;;;;;;;;;4496431;28;20866;-67
2022/09/26 07:19:24;;;;;;;1.98;1.75;;;;;;;;;;4496420;28;20026;-67
2022/09/26 07:21:45;;;;;;;2.10;1.90;;;;;;;;;;4511818;28;20033;-68
2022/09/26 07:24:18;;;;;;;2.60;2.00;;;;;;;;;;4511422;28;20035;-68
2022/09/26 07:26:28;;;;;;;2.28;1.60;;;;;;;;;;4503242;28;20413;-67
2022/09/26 07:28:40;;;;;;;1.95;1.60;;;;;;;;;;4504461;28;20116;-67
2022/09/26 07:30:56;;;;;;;1.80;1.50;;;;;;;;;;4496361;28;20034;-67
2022/09/26 07:33:28;;;;;;;1.38;1.27;;;;;;;;;;4487378;28;20128;-67
2022/09/26 07:35:43;;;;;;;1.80;1.40;;;;;;;;;;4509144;28;20779;-67
2022/09/26 07:37:53;;;;;;;1.60;1.40;;;;;;;;;;4508974;28;20040;-68
2022/09/26 07:40:04;;;;;;;2.00;1.50;;;;;;;;;;4501986;28;20337;-68
2022/09/26 07:42:17;;;;;;;1.85;1.55;;;;;;;;;;4485576;28;20811;-68
2022/09/26 07:44:28;;;;;;;2.15;1.50;;;;;;;;;;4495364;28;20141;-67
2022/09/26 07:51:40;;;;;;;1.98;1.63;;;;;;;;;;4508356;28;20092;-69
2022/09/26 07:53:54;;;;;;;2.10;1.90;;;;;;;;;;4502547;28;20040;-67
2022/09/26 07:56:23;;;;;;;3.10;1.48;;;;;;;;;;4508162;28;21213;-67
2022/09/26 07:58:45;;;;;;;1.45;1.35;;;;;;;;;;4508326;28;20076;-67
2022/09/26 08:01:15;;;;;;;2.80;1.60;;;;;;;;;;4501450;28;20041;-67
2022/09/26 08:03:46;;;;;;;2.30;1.63;;;;;;;;;;4510018;28;20045;-67
2022/09/26 08:06:09;;;;;;;1.73;1.50;;;;;;;;;;4501521;28;20038;-67
2022/09/26 08:08:20;;;;;;;2.92;2.40;;;;;;;;;;4502146;28;20282;-67
2022/09/26 08:10:43;;;;;;;1.60;1.50;;;;;;;;;;4506767;28;20061;-67
2022/09/26 08:13:17;;;;;;;1.45;1.27;;;;;;;;;;4510481;28;20634;-67
2022/09/26 08:15:47;;;;;;;1.92;1.30;;;;;;;;;;4508697;28;20578;-67
2022/09/26 08:18:06;;;;;;;2.80;1.23;;;;;;;;;;4497193;28;20038;-67
2022/09/26 08:20:17;;;;;;;1.88;1.23;;;;;;;;;;4488310;28;20042;-67
2022/09/26 08:22:27;;;;;;;1.63;1.33;;;;;;;;;;4492335;28;20499;-67
2022/09/26 08:24:38;;;;;;;1.52;1.10;;;;;;;;;;4494559;28;20030;-67
2022/09/26 08:27:20;;;;;;;1.85;1.10;;;;;;;;;;4510039;28;20061;-67
2022/09/26 08:29:33;;;;;;;1.63;1.10;;;;;;;;;;4502421;28;21341;-67
2022/09/26 08:31:46;;;;;;;1.98;1.13;;;;;;;;;;4501923;28;20488;-67
2022/09/26 08:33:57;;;;;;;1.77;1.20;;;;;;;;;;4486018;28;20783;-67
2022/09/26 08:36:10;;;;;;;2.22;1.17;;;;;;;;;;4502472;28;20034;-67
2022/09/26 08:38:48;;;;;;;2.25;1.30;;;;;;;;;;4494881;28;20849;-66
2022/09/26 08:41:42;;;;;;;1.35;0.90;;;;;;;;;;4510456;28;20046;-68
2022/09/26 08:44:29;;;;;;;1.25;1.15;;;;;;;;;;4495118;28;20111;-67
2022/09/26 08:47:41;;;;;;;1.95;0.90;;;;;;;;;;4502281;28;20052;-67
2022/09/26 08:50:47;;;;;;;0.95;0.90;;;;;;;;;;4449886;28;20765;-67
2022/09/26 08:53:02;;;;;;;1.70;1.20;;;;;;;;;;4494344;28;20045;-67
2022/09/26 08:55:31;;;;;;;1.40;1.10;;;;;;;;;;4508372;28;20047;-67
2022/09/26 08:57:47;;;;;;;1.55;1.25;;;;;;;;;;4508408;28;20037;-67
2022/09/26 08:59:57;;;;;;;1.25;1.00;;;;;;;;;;4502175;28;20040;-67
2022/09/26 09:02:42;;;;;;;2.17;1.15;;;;;;;;;;4509599;28;20040;-67
2022/09/26 09:05:10;;;;;;;1.45;0.95;;;;;;;;;;4472868;28;20050;-67
2022/09/26 09:07:25;;;;;;;0.73;0.73;;;;;;;;;;4495903;28;20713;-67
2022/09/26 09:09:37;;;;;;;1.25;0.70;;;;;;;;;;4490169;28;20317;-68
2022/09/26 09:12:13;;;;;;;1.38;0.70;;;;;;;;;;4498603;28;20069;-67
2022/09/26 09:15:06;;;;;;;1.00;0.70;;;;;;;;;;4500546;28;20029;-67
2022/09/26 09:17:51;;;;;;;0.70;0.70;;;;;;;;;;4481650;28;20583;-67
2022/09/26 09:20:25;;;;;;;;;;;;;;;;;;4508857;28;20034;-67
2022/09/26 09:23:38;;;;;;;1.17;0.82;;;;;;;;;;4509273;28;19917;-67
2022/09/26 09:26:05;;;;;;;1.15;0.80;;;;;;;;;;4470429;28;20054;-67
2022/09/26 09:28:18;;;;;;;1.27;1.00;;;;;;;;;;4489770;28;21047;-67
2022/09/26 09:30:35;;;;;;;0.68;0.60;;;;;;;;;;4498570;28;20145;-67
2022/09/26 09:33:25;;;;;;;1.30;0.60;;;;;;;;;;4475312;28;20068;-67
2022/09/26 09:36:08;;;;;;;1.10;0.70;;;;;;;;;;4451940;28;20046;-67
2022/09/26 09:38:46;;;;;;;0.95;0.60;;;;;;;;;;4503039;28;20046;-67
2022/09/26 09:41:22;;;;;;;0.90;0.70;;;;;;;;;;4495050;28;20034;-68
2022/09/26 09:43:44;;;;;;;1.15;0.75;;;;;;;;;;4480300;28;20081;-68
2022/09/26 09:46:01;;;;;;;1.38;0.70;;;;;;;;;;4508978;28;20454;-68
2022/09/26 09:48:12;;;;;;;1.50;0.85;;;;;;;;;;4494413;28;20089;-67
2022/09/26 09:50:41;;;;;;;0.90;0.90;;;;;;;;;;4489525;28;20031;-66
2022/09/26 09:53:12;;;;;;;1.38;0.73;;;;;;;;;;4502766;28;20040;-68
2022/09/26 09:55:42;;;;;;;1.02;0.80;;;;;;;;;;4486678;28;20077;-66
2022/09/26 09:58:26;;;;;;;1.27;0.70;;;;;;;;;;4484195;28;20087;-67
2022/09/26 10:00:40;;;;;;;0.73;0.60;;;;;;;;;;4445656;28;20122;-69
2022/09/26 10:03:21;;;;;;;1.02;0.70;;;;;;;;;;4494869;28;20037;-67
2022/09/26 10:05:38;;;;;;;1.05;0.75;;;;;;;;;;4507530;28;20046;-66
2022/09/26 10:07:56;;;;;;;0.70;0.60;;;;;;;;;;4500143;28;20034;-67
2022/09/26 10:10:53;;;;;;;0.88;0.80;;;;;;;;;;4505193;28;20430;-66
2022/09/26 10:13:34;;;;;;;0.90;0.70;;;;;;;;;;4463807;28;20926;-66
2022/09/26 10:16:17;;;;;;;1.40;0.75;;;;;;;;;;4471037;28;20800;-66
2022/09/26 10:18:59;;;;;;;1.25;0.80;;;;;;;;;;4494587;28;20042;-66
2022/09/26 10:21:13;;;;;;;1.58;0.70;;;;;;;;;;4496020;28;20105;-65
2022/09/26 10:23:34;;;;;;;0.63;0.60;;;;;;;;;;4506570;28;20040;-65
2022/09/26 10:25:49;;;;;;;0.70;0.70;;;;;;;;;;4494475;28;20057;-65
2022/09/26 10:28:00;;;;;;;0.68;0.60;;;;;;;;;;4501821;28;20519;-65
2022/09/26 10:30:18;;;;;;;0.85;0.68;;;;;;;;;;4495241;28;20026;-65
2022/09/26 10:32:30;;;;;;;0.85;0.55;;;;;;;;;;4497902;28;20858;-62
2022/09/26 10:35:17;;;;;;;2.10;1.00;;;;;;;;;;4501449;28;20116;-65
2022/09/26 10:37:29;;;;;;;1.33;0.90;;;;;;;;;;4505547;28;20044;-65
2022/09/26 10:42:25;;;;;;;0.90;0.70;;;;;;;;;;4512297;28;20057;-68
2022/09/26 10:44:38;;;;;;;1.40;0.90;;;;;;;;;;4497480;28;20692;-67
2022/09/26 10:46:50;;;;;;;0.73;0.70;;;;;;;;;;4513183;28;20092;-67
2022/09/26 11:03:59;;;;;;;1.17;1.00;;;;;;;;;;4505719;28;20641;-68
2022/09/26 11:06:45;;;;;;;1.95;1.10;;;;;;;;;;4489533;28;20528;-68
2022/09/26 11:09:19;;;;;;;2.28;0.90;;;;;;;;;;4469422;28;20045;-67
2022/09/26 11:11:50;;;;;;;1.73;1.00;;;;;;;;;;4496037;28;20084;-68
2022/09/26 11:14:06;;;;;;;1.63;0.82;;;;;;;;;;4483930;28;20030;-68
2022/09/26 11:16:19;;;;;;;1.52;0.82;;;;;;;;;;4483987;28;20794;-67
2022/09/26 11:18:43;;;;;;;1.38;0.80;;;;;;;;;;4499893;28;20092;-69
2022/09/26 11:20:56;;;;;;;1.23;0.90;;;;;;;;;;4508971;28;20034;-67
2022/09/26 11:23:26;;;;;;;2.17;1.00;;;;;;;;;;4473328;28;20042;-68
2022/09/26 11:25:50;;;;;;;0.68;0.60;;;;;;;;;;4495123;28;20124;-68
2022/09/26 11:28:09;;;;;;;1.02;0.63;;;;;;;;;;4512198;28;20229;-68
2022/09/26 11:30:47;;;;;;;0.80;0.70;;;;;;;;;;4501386;28;20204;-67
2022/09/26 11:32:59;;;;;;;1.25;0.77;;;;;;;;;;4479772;28;20034;-67
2022/09/26 11:35:32;;;;;;;1.23;0.77;;;;;;;;;;4510416;28;20041;-68
2022/09/26 11:37:52;;;;;;;1.35;0.70;;;;;;;;;;4501133;28;20041;-68
2022/09/26 11:40:13;;;;;;;1.25;0.63;;;;;;;;;;4500181;28;20818;-68
2022/09/26 11:42:53;;;;;;;1.02;0.80;;;;;;;;;;4507366;28;20036;-68
2022/09/26 11:45:33;;;;;;;1.30;0.80;;;;;;;;;;4493058;28;20181;-67
2022/09/26 11:48:04;;;;;;;1.33;0.75;;;;;;;;;;4490272;28;20649;-68
2022/09/26 11:50:50;;;;;;;0.70;0.70;;;;;;;;;;4499205;28;20654;-68
2022/09/26 11:53:35;;;;;;;1.15;0.80;;;;;;;;;;4485075;28;20034;-67
2022/09/26 11:56:10;;;;;;;0.70;0.60;;;;;;;;;;4507865;28;20309;-68
2022/09/26 11:58:37;;;;;;;1.13;0.52;;;;;;;;;;4508103;28;20133;-66
2022/09/26 12:00:59;;;;;;;0.70;0.60;;;;;;;;;;4494018;28;20069;-67
2022/09/26 12:03:21;;;;;;;1.88;0.77;;;;;;;;;;4502340;28;21055;-67
2022/09/26 12:05:41;;;;;;;0.60;0.50;;;;;;;;;;4506391;28;20042;-66
2022/09/26 12:08:14;;;;;;;0.68;0.55;;;;;;;;;;4509614;28;20068;-67
2022/09/26 12:10:49;;;;;;;0.93;0.60;;;;;;;;;;4500247;28;20197;-68
2022/09/26 12:13:23;;;;;;;0.50;0.50;;;;;;;;;;4508054;28;20037;-66
2022/09/26 12:15:43;;;;;;;0.75;0.40;;;;;;;;;;4509633;28;20169;-66
2022/09/26 12:18:02;;;;;;;1.25;0.50;;;;;;;;;;4507850;28;20105;-67
2022/09/26 12:20:53;;;;;;;0.70;0.50;;;;;;;;;;4508213;28;20696;-66
2022/09/26 12:23:43;;;;;;;0.57;0.50;;;;;;;;;;4508027;28;20084;-66
2022/09/26 12:26:04;;;;;;;0.65;0.50;;;;;;;;;;4477597;28;20061;-67
2022/09/26 12:28:22;;;;;;;0.60;0.60;;;;;;;;;;4503421;28;20677;-67
2022/09/26 12:31:00;;;;;;;0.50;0.47;;;;;;;;;;4490124;28;20034;-66
2022/09/26 12:33:23;;;;;;;0.80;0.50;;;;;;;;;;4500687;28;20220;-66
2022/09/26 12:36:00;;;;;;;0.75;0.50;;;;;;;;;;4506685;28;21168;-65
2022/09/26 12:38:52;;;;;;;0.40;0.40;;;;;;;;;;4507951;28;20050;-66
2022/09/26 12:41:05;;;;;;;0.68;0.60;;;;;;;;;;4470166;28;20078;-68
2022/09/26 12:43:25;;;;;;;1.02;0.60;;;;;;;;;;4510651;28;21524;-66
2022/09/26 12:46:05;;;;;;;0.50;0.50;;;;;;;;;;4507411;28;20084;-68
2022/09/26 12:48:28;;;;;;;0.40;0.40;;;;;;;;;;4499997;28;20034;-68
2022/09/26 12:51:10;;;;;;;0.40;0.40;;;;;;;;;;4507835;28;20496;-68
2022/09/26 12:53:43;;;;;;;0.52;0.40;;;;;;;;;;4507416;28;20044;-69
2022/09/26 13:18:36;;;;;;;0.30;0.30;;;;;;;;;;4644812;27;20449;-62
2022/09/26 13:20:48;;;;;;;;;;;;;;;;;;4600848;27;20046;-62
2022/09/26 13:23:17;;;;;;;0.77;0.55;;;;;;;;;;4632487;27;20343;-62
2022/09/26 13:25:43;;;;;;;0.40;0.40;;;;;;;;;;4632484;27;20806;-62
2022/09/26 13:28:05;;;;;;;0.40;0.40;;;;;;;;;;4612287;27;20070;-62
2022/09/26 13:30:23;;;;;;;0.82;0.50;;;;;;;;;;4632379;27;20019;-62
2022/09/26 13:32:46;;;;;;;0.50;0.40;;;;;;;;;;4612294;27;20035;-62
2022/09/26 13:35:03;;;;;;;0.80;0.45;;;;;;;;;;4632223;27;20041;-62
2022/09/26 13:37:30;;;;;;;0.63;0.40;;;;;;;;;;4632055;27;20111;-62
2022/09/26 13:39:48;;;;;;;0.82;0.50;;;;;;;;;;4615296;27;20107;-62
2022/09/26 13:42:07;;;;;;;0.30;0.30;;;;;;;;;;4618195;27;20038;-62
2022/09/26 13:44:45;;;;;;;1.25;0.40;;;;;;;;;;4632541;27;20084;-62
2022/09/26 13:47:18;;;;;;;0.70;0.50;;;;;;;;;;4630398;27;20038;-63
2022/09/26 13:49:56;;;;;;;0.50;0.50;;;;;;;;;;4632489;27;20038;-62
2022/09/26 13:52:22;;;;;;;;;;;;;;;;;;4630327;27;20564;-62
2022/09/26 13:54:53;;;;;;;0.95;0.50;;;;;;;;;;4632132;27;20010;-62
2022/09/26 13:57:30;;;;;;;0.40;0.40;;;;;;;;;;4632817;27;20031;-61
2022/09/26 13:59:50;;;;;;;0.57;0.40;;;;;;;;;;4614157;27;20031;-62
2022/09/26 14:02:25;;;;;;;0.52;0.50;;;;;;;;;;4615003;27;20038;-61
2022/09/26 14:04:35;;;;;;;0.40;0.40;;;;;;;;;;4632259;27;20105;-60
2022/09/26 14:09:41;;;;;;;0.90;0.50;;;;;;;;;;4631643;27;20031;-62
2022/09/26 14:12:16;;;;;;;1.30;0.40;;;;;;;;;;4613685;27;20039;-61
2022/09/26 14:14:38;;;;;;;0.43;0.43;;;;;;;;;;4633734;27;21062;-62
2022/09/26 14:16:51;;;;;;;0.60;0.47;;;;;;;;;;4616129;27;20071;-61
2022/09/26 14:19:15;;;;;;;0.98;0.50;;;;;;;;;;4621205;27;20080;-61
2022/09/26 14:21:39;;;;;;;1.23;0.50;;;;;;;;;;4589720;27;20040;-61
2022/09/26 14:24:29;;;;;;;0.68;0.60;;;;;;;;;;4606781;27;20692;-61
2022/09/26 14:26:41;;;;;;;1.00;0.60;;;;;;;;;;4585285;27;20043;-61
2022/09/26 14:28:54;;;;;;;0.63;0.57;;;;;;;;;;4600734;27;20612;-61
2022/09/26 14:31:16;;;;;;;0.55;0.55;;;;;;;;;;4604850;27;20075;-62
2022/09/26 14:33:26;;;;;;;0.88;0.55;;;;;;;;;;4619358;27;20046;-60
2022/09/26 14:35:37;;;;;;;0.70;0.60;;;;;;;;;;4618906;27;24487;-61
2022/09/26 14:37:49;;;;;;;0.65;0.55;;;;;;;;;;4590477;27;20609;-62
2022/09/26 14:40:08;;;;;;;0.90;0.50;;;;;;;;;;4600592;27;20118;-63
2022/09/26 14:42:35;;;;;;;1.02;0.68;;;;;;;;;;4618777;27;20027;-62
2022/09/26 14:44:56;;;;;;;1.30;0.70;;;;;;;;;;4617973;27;20023;-61
2022/09/26 14:47:12;;;;;;;1.02;0.80;;;;;;;;;;4584810;27;20083;-60
2022/09/26 14:49:25;;;;;;;1.13;0.70;;;;;;;;;;4598607;27;20045;-60
2022/09/26 14:51:38;;;;;;;0.60;0.60;;;;;;;;;;4619148;27;20039;-61
2022/09/26 14:54:13;;;;;;;0.85;0.60;;;;;;;;;;4602217;27;20115;-61
2022/09/26 14:56:27;;;;;;;0.80;0.73;;;;;;;;;;4619576;27;20617;-61
2022/09/26 14:58:37;;;;;;;0.95;0.80;;;;;;;;;;4608439;27;20579;-60